Date,TemperatureHighF,TemperatureAvgF,TemperatureLowF,DewpointHighF,DewpointAvgF,DewpointLowF,HumidityHigh,HumidityAvg,HumidityLow,PressureMaxIn,PressureMinIn,WindSpeedMaxMPH,WindSpeedAvgMPH,GustSpeedMaxMPH,PrecipitationSumIn
2013-1-8,31.5,29.6,28.6,26.6,25.1,24.1,84,83,82,30.00,28.97,21,-23,21,0.10
2013-1-9,35.2,29.9,20.3,28.2,22.7,16.9,88,75,61,30.49,30.00,26,5,26,0.00
2013-1-10,41.2,34.7,20.8,32.4,26.3,17.6,92,72,50,30.42,29.83,17,3,17,0.27
2013-1-11,41.2,37.4,35.1,38.7,34.8,32.2,91,90,89,29.83,29.47,17,4,17,0.01
2013-1-12,37.8,14.5,4.3,35.4,8.2,-2.6,91,75,65,30.24,29.47,33,9,33,0.00
2013-1-13,9.3,4.7,1.2,3.2,-1.2,-4.5,86,76,70,30.43,30.22,15,3,15,0.00
2013-1-14,14.4,7.4,3.0,5.2,1.7,-1.3,91,77,64,30.60,30.43,15,2,15,0.00
2013-1-15,31.5,18.7,3.7,19.4,11.5,0.0,92,74,54,30.44,29.97,22,4,24,0.00
2013-1-16,37.2,26.3,10.8,32.5,20.0,0.3,90,77,55,30.37,29.79,26,6,27,0.01
2013-1-17,20.5,11.7,2.7,12.2,3.5,-4.4,80,70,54,30.56,30.37,13,2,13,0.00
2013-1-18,43.5,31.1,17.2,32.0,24.9,12.2,87,78,62,30.45,29.86,18,4,18,0.00
2013-1-19,39.2,22.6,2.7,31.8,16.2,-4.9,90,77,55,30.40,29.78,39,8,40,0.02
2013-1-20,9.7,3.3,-2.2,3.0,-4.7,-10.5,82,69,58,30.58,30.40,23,6,27,0.00
2013-1-21,-2.2,-6.2,-10.1,-10.1,-14.2,-18.0,78,68,61,30.56,30.47,22,6,22,0.00
2013-1-22,5.7,-2.2,-11.6,-1.3,-9.7,-17.3,77,70,61,30.62,30.43,10,1,10,0.00
2013-1-23,16.2,7.3,-2.9,9.0,-1.5,-14.1,92,67,51,30.79,30.33,28,6,28,0.00
2013-1-24,15.4,4.2,-4.7,4.1,-7.3,-15.5,63,58,50,30.86,30.33,16,3,17,0.00
2013-1-25,20.1,12.7,3.4,13.5,4.2,-3.3,76,69,59,30.48,30.12,27,7,31,0.00
2013-1-26,25.9,12.9,-2.7,13.6,3.7,-7.6,83,67,50,30.52,30.25,17,2,17,0.00
2013-1-27,33.6,30.7,25.5,30.0,23.7,13.5,90,76,59,30.25,29.90,14,1,15,0.16
2013-1-28,35.2,32.7,31.1,32.9,30.3,28.8,91,91,90,30.00,29.73,10,1,10,0.32
2013-1-29,35.8,32.6,28.2,31.6,28.7,22.5,91,85,78,29.86,29.63,20,5,22,0.17
2013-1-30,28.2,17.8,8.1,22.5,11.5,2.3,81,76,69,29.93,29.76,25,10,25,0.17
2013-1-31,8.1,0.3,-7.6,2.1,-6.8,-15.0,78,71,65,30.48,29.92,25,9,26,0.00
2013-2-1,6.4,-2.2,-13.5,3.9,-9.5,-19.5,92,71,53,30.52,30.23,13,1,13,0.00
2013-2-2,14.9,7.4,2.5,6.8,1.1,-3.5,85,75,55,30.36,30.13,10,1,10,0.00
2013-2-3,15.4,11.0,4.5,9.0,5.1,-1.1,86,77,64,30.27,30.11,19,2,19,0.00
2013-2-4,20.7,10.8,2.5,13.8,3.5,-1.8,87,73,51,30.23,29.90,12,1,12,0.04
2013-2-5,30.4,21.6,1.6,26.6,16.6,-2.2,90,81,66,30.23,29.81,20,4,20,0.00
2013-2-6,30.6,15.5,-1.8,23.5,10.9,-5.8,92,82,72,30.25,30.06,11,1,11,0.03
2013-2-7,27.9,25.8,22.5,23.9,21.6,18.7,92,84,76,30.38,30.11,18,4,19,0.00
2013-2-8,26.4,24.6,21.0,21.7,18.9,15.1,82,79,74,30.50,30.34,18,2,18,0.00
2013-2-9,33.4,29.4,26.4,28.8,25.4,21.7,89,85,82,30.34,30.03,22,7,24,0.00
2013-2-10,33.8,31.4,29.3,31.5,28.6,25.7,92,89,86,30.03,29.37,18,4,19,0.03
2013-2-11,30.0,24.6,15.4,27.7,19.3,10.2,91,80,74,30.18,29.46,28,9,28,0.00
2013-2-12,38.5,24.3,13.3,25.3,17.8,9.3,89,77,57,30.18,29.94,17,3,17,0.19
2013-2-13,41.4,28.8,15.8,31.6,23.1,12.6,90,80,59,29.94,29.67,13,2,13,0.23
2013-2-14,33.6,26.0,10.4,30.7,19.1,2.1,90,76,50,30.33,29.68,23,6,23,0.24
2013-2-15,16.5,9.4,3.4,5.9,2.1,-1.5,81,72,60,30.47,30.32,16,3,17,0.00
2013-2-16,20.7,9.5,0.7,11.7,3.5,-2.9,92,77,62,30.43,30.26,7,1,8,0.00
2013-2-17,33.3,22.4,8.4,24.6,15.5,3.4,84,75,66,30.27,29.73,24,4,24,0.01
2013-2-18,34.3,22.6,5.5,30.9,16.9,1.2,87,78,71,29.97,29.63,29,7,29,0.01
2013-2-19,5.7,1.8,-3.5,3.9,-5.8,-11.0,92,70,61,30.57,29.97,25,8,25,0.00
2013-2-20,18.1,4.8,-11.0,4.1,-4.1,-16.2,79,67,47,30.66,30.56,5,0,8,0.00
2013-2-21,23.4,15.3,1.9,12.2,6.7,-3.1,81,69,57,30.60,30.21,16,2,16,0.00
2013-2-22,27.1,22.7,19.6,22.1,18.9,12.4,89,85,66,30.21,29.99,15,3,15,0.09
2013-2-23,30.0,19.1,4.6,22.8,14.7,1.2,96,83,73,30.11,29.99,13,2,13,0.01
2013-2-24,40.6,16.8,-2.9,23.2,9.9,-6.9,89,75,48,30.25,30.10,9,0,10,0.05
2013-2-25,39.7,27.4,13.5,25.5,20.3,9.9,87,75,55,30.25,30.15,8,1,8,0.00
2013-2-26,34.7,25.6,9.0,26.8,20.2,5.7,89,80,71,30.18,30.00,16,4,16,0.00
2013-2-27,39.6,32.4,27.9,26.4,24.5,21.9,82,73,56,30.15,29.99,21,6,23,0.00
2013-2-28,30.4,29.2,26.4,23.2,21.7,19.9,79,73,65,30.29,30.14,15,5,15,0.00
2013-3-9,37.6,36.2,34.3,34.9,33.4,31.6,90,90,89,29.97,29.79,11,1,12,0.33
2013-3-10,34.9,33.2,29.7,32.2,28.4,24.1,91,82,77,30.06,29.87,24,9,25,0.02
2013-3-11,30.6,27.3,20.1,24.3,21.1,14.7,81,77,67,29.98,29.88,18,6,18,0.00
2013-3-12,28.0,24.0,20.1,19.4,16.6,13.3,82,73,57,30.34,29.96,26,7,27,0.00
2013-3-13,32.2,21.5,10.2,19.4,13.9,6.4,92,73,54,30.53,30.34,16,3,17,0.00
2013-3-14,44.8,31.6,24.8,28.9,23.9,18.1,89,74,52,30.38,30.13,11,2,12,0.08
2013-3-15,35.1,31.0,24.6,31.1,27.6,21.0,92,87,83,30.13,29.92,15,2,16,0.11
2013-3-16,26.1,21.0,12.4,23.2,14.0,4.3,89,75,59,30.39,30.00,20,6,20,0.00
2013-3-17,28.6,19.3,9.3,22.3,9.4,1.2,77,65,56,30.41,29.98,16,4,18,0.00
2013-3-18,30.9,21.9,11.7,27.7,16.9,5.2,90,81,73,29.99,29.73,32,9,32,0.00
2013-3-19,22.3,13.1,7.2,7.5,2.8,-0.2,76,63,45,30.38,29.99,24,9,25,0.00
2013-3-20,19.6,12.1,6.3,5.9,1.2,-2.9,70,61,52,30.40,30.29,28,8,28,0.00
2013-3-21,31.1,15.4,-2.2,10.6,4.4,-6.7,83,63,39,30.30,30.20,13,1,13,0.00
2013-3-22,39.9,21.7,1.2,17.2,10.3,-2.7,85,64,37,30.25,30.18,11,1,11,0.00
2013-3-23,39.4,26.9,10.9,21.2,16.9,6.8,87,67,45,30.29,30.21,11,1,11,0.00
2013-3-24,33.4,29.3,24.8,26.8,22.5,19.6,92,76,60,30.24,30.10,19,4,19,0.01
2013-3-25,36.3,29.9,24.3,24.1,18.9,16.0,81,64,50,30.36,30.17,18,7,19,0.00
2013-3-26,38.8,28.5,20.1,25.0,19.8,15.4,85,71,54,30.44,30.36,15,2,15,0.00
2013-3-27,49.3,29.7,12.4,28.2,17.9,9.3,89,65,32,30.48,30.43,12,1,12,0.00
2013-3-28,43.2,31.5,16.5,28.4,22.5,13.3,89,71,51,30.47,30.39,11,1,11,0.00
2013-3-29,49.6,40.2,30.9,38.8,32.2,25.3,82,73,59,30.40,30.15,13,2,15,0.00
2013-3-30,52.3,42.9,33.4,44.2,37.1,30.2,88,80,69,30.15,29.95,11,3,18,0.07
2013-3-31,38.5,33.1,23.7,31.3,24.7,14.0,90,72,48,30.23,29.91,29,8,29,0.01
2013-4-1,33.4,25.2,18.1,19.0,15.0,11.3,80,65,50,30.41,30.23,21,7,23,0.00
2013-4-2,35.8,27.5,19.6,18.3,16.2,14.4,84,64,44,30.49,30.40,19,4,19,0.00
2013-4-3,47.5,33.9,17.1,33.6,23.6,13.8,89,67,45,30.53,30.17,28,6,28,0.00
2013-4-4,48.6,41.8,33.1,34.2,29.6,24.4,81,63,44,30.28,30.11,23,7,26,0.00
2013-4-5,42.4,33.9,25.9,32.2,25.8,19.4,89,73,47,30.35,29.98,19,3,20,0.07
2013-4-6,56.8,43.4,36.1,46.6,35.9,30.6,88,75,61,29.98,29.58,19,5,20,0.10
2013-4-7,49.3,40.8,34.2,40.5,34.8,30.9,92,79,66,30.04,29.84,14,2,14,0.09
2013-4-8,46.8,43.2,40.8,42.4,39.8,36.3,92,88,82,30.12,29.75,15,3,16,0.56
2013-4-9,42.6,38.4,32.2,36.3,32.3,29.3,89,79,61,30.26,30.04,22,6,24,0.78
2013-4-10,37.0,33.8,30.4,30.6,28.0,24.6,90,80,65,30.29,30.00,17,4,17,0.29
2013-4-11,35.8,33.2,30.7,32.0,29.8,27.0,90,87,71,30.00,29.78,21,3,21,0.54
2013-4-12,35.1,31.1,27.3,30.4,27.6,24.8,90,87,77,29.96,29.78,15,3,15,0.25
2013-4-13,30.4,29.9,29.7,27.7,27.4,27.1,90,90,90,29.97,29.96,3,1,3,0.00
2013-4-16,42.4,38.9,35.2,29.7,28.5,27.5,75,66,58,30.43,30.36,10,2,11,0.00
2013-4-17,41.4,37.3,33.6,34.3,30.8,27.3,90,77,68,30.43,29.99,17,3,17,0.36
2013-4-18,34.7,32.5,31.1,32.7,29.9,28.8,96,90,87,30.04,29.64,22,8,23,0.21
2013-4-19,37.8,32.1,29.5,28.9,26.1,19.6,92,79,52,30.12,29.62,30,11,31,0.40
2013-4-20,47.1,33.1,19.8,24.8,18.1,13.8,86,57,30,30.42,30.12,12,2,14,0.04
2013-4-21,52.0,41.7,33.8,46.0,36.4,20.5,90,82,57,30.43,30.11,23,4,25,0.18
2013-4-22,43.3,36.6,31.8,36.5,31.8,29.5,91,83,64,30.30,30.21,19,4,20,0.18
2013-4-23,40.1,33.2,26.2,29.5,25.5,22.5,91,75,51,30.29,30.19,18,3,19,0.18
2013-4-24,52.2,37.6,26.4,34.2,28.8,22.6,89,73,40,30.19,30.01,28,6,30,0.02
2013-4-25,52.2,41.4,31.5,32.9,29.8,24.8,89,65,39,30.32,30.10,23,5,23,0.00
2013-4-26,71.4,58.1,45.3,48.0,40.6,32.7,76,54,32,30.20,30.05,26,5,27,0.01
2013-4-27,75.0,58.0,34.5,47.8,39.6,30.9,89,55,26,30.21,29.96,21,3,21,0.00
2013-4-28,81.7,64.3,49.6,52.0,48.3,44.2,83,59,33,29.96,29.68,31,8,31,0.06
2013-4-29,73.8,61.6,47.7,56.7,47.2,37.4,87,62,37,29.88,29.58,14,2,17,0.00
2013-4-30,69.8,63.9,55.9,59.2,46.7,31.3,81,56,28,30.04,29.45,25,5,28,0.00
2013-5-1,55.9,40.2,33.1,37.6,33.7,29.5,92,79,49,30.58,30.03,20,4,21,0.49
2013-5-2,46.6,40.1,35.8,29.8,27.8,25.3,75,62,47,30.66,30.52,23,8,23,0.00
2013-5-3,37.8,35.0,32.9,32.9,28.7,24.4,88,78,64,30.52,30.26,21,6,22,0.06
2013-5-4,47.8,39.6,33.4,41.5,35.5,29.8,89,85,77,30.28,30.21,17,5,17,0.05
2013-5-5,63.9,49.0,38.8,50.0,41.9,35.4,88,77,59,30.27,30.16,13,3,13,0.00
2013-5-6,75.7,59.9,41.9,51.4,47.0,38.8,89,66,39,30.20,30.07,11,1,11,0.00
2013-5-7,79.9,64.0,45.0,54.1,48.5,41.9,89,61,35,30.13,30.00,15,2,15,0.00
2013-5-8,75.2,63.0,54.7,55.6,51.6,46.9,88,69,42,30.06,29.98,18,1,18,0.23
2013-5-9,60.1,54.4,44.8,55.0,48.1,29.8,89,80,55,30.18,30.00,22,5,24,0.04
2013-5-10,67.6,52.2,37.9,40.3,30.1,25.0,71,46,23,30.20,29.96,14,3,15,0.00
2013-5-11,56.7,47.3,35.8,42.1,27.7,19.9,68,48,32,30.27,29.95,37,11,37,0.06
2013-5-12,57.9,44.2,29.7,26.6,22.9,18.3,78,47,22,30.34,30.18,22,4,22,0.00
2013-5-13,75.4,55.5,32.4,49.8,36.9,25.5,79,53,32,30.20,29.71,26,5,26,0.00
2013-5-14,99.1,73.8,48.4,58.3,47.9,34.3,85,46,17,29.74,29.49,28,6,31,0.00
2013-5-15,79.2,66.4,51.3,51.4,47.1,42.4,74,52,32,29.96,29.73,24,5,24,0.01
2013-5-16,82.6,68.7,46.8,52.3,45.7,36.5,85,48,27,29.97,29.87,16,2,16,0.00
2013-5-17,67.6,58.2,55.2,55.0,51.3,38.8,89,79,35,30.04,29.93,14,2,15,0.72
2013-5-18,80.8,66.6,56.7,66.7,59.5,53.4,90,79,58,30.07,29.81,22,3,22,1.39
2013-5-19,79.7,69.5,64.8,67.8,63.4,61.2,89,81,64,29.83,29.57,26,3,26,0.91
2013-5-20,71.8,65.6,58.6,61.7,59.1,55.0,89,80,64,29.62,29.54,28,5,28,0.51
2013-5-21,63.1,58.0,49.6,58.5,54.2,46.6,90,87,75,29.77,29.55,12,2,13,0.12
2013-5-22,53.8,49.1,45.3,49.6,45.9,42.6,94,88,71,30.07,29.75,18,4,18,0.21
2013-5-23,64.6,53.9,45.0,44.1,37.3,31.3,82,56,31,30.42,30.07,17,4,19,0.00
2013-5-24,68.5,54.2,34.9,52.3,40.9,31.1,88,63,37,30.46,30.22,18,3,18,0.23
2013-5-25,59.7,55.3,52.9,50.2,48.3,43.5,88,78,66,30.33,30.27,22,5,22,0.04
2013-5-26,56.8,54.3,51.6,49.6,45.1,41.7,79,71,62,30.29,30.08,23,4,23,0.00
2013-5-27,60.3,56.5,53.4,54.3,51.7,48.9,89,84,75,30.12,29.88,15,3,17,0.05
2013-5-28,60.6,56.5,53.2,56.5,53.1,50.0,92,89,85,29.89,29.78,10,1,11,0.06
2013-5-29,74.7,64.5,53.1,69.3,60.3,49.6,90,86,75,29.88,29.67,15,2,17,0.19
2013-5-30,75.2,68.4,63.3,66.2,62.7,60.1,89,82,67,29.72,29.54,29,7,29,0.34
2013-5-31,77.2,68.0,60.1,61.5,56.3,51.6,89,68,43,29.60,29.55,33,7,36,0.04
2013-6-1,72.0,59.3,51.3,60.3,52.2,43.7,89,78,57,30.01,29.59,23,4,28,0.07
2013-6-2,65.8,55.6,47.1,45.7,42.7,39.9,86,64,43,30.16,30.01,16,4,19,0.00
2013-6-3,69.6,58.7,40.3,49.1,44.2,37.2,89,62,41,30.14,29.98,16,1,16,0.00
2013-6-4,63.1,59.4,55.0,53.6,50.7,46.6,88,73,56,30.13,30.04,19,3,19,0.01
2013-6-5,66.9,57.6,54.0,57.7,53.1,49.3,89,85,69,30.11,29.99,14,2,16,0.16
2013-6-6,56.7,53.9,51.3,52.9,50.2,48.0,92,87,83,30.11,30.03,14,3,14,0.00
2013-6-7,67.1,58.1,53.2,53.6,51.2,50.0,89,79,60,30.13,30.00,6,1,6,0.00
2013-6-9,66.2,64.4,62.1,61.3,60.5,58.6,89,87,84,29.87,29.82,6,0,7,0.00
2013-6-10,77.0,66.2,58.5,63.5,59.8,55.2,89,81,59,29.91,29.85,11,1,11,0.00
2013-6-11,77.5,66.3,55.6,68.2,61.5,52.5,90,85,70,29.95,29.83,10,1,10,0.01
2013-6-12,71.8,66.5,60.3,65.7,61.1,54.3,90,83,67,29.99,29.81,16,3,17,2.90
2013-6-13,78.1,67.8,54.9,58.6,54.8,49.8,85,64,46,30.16,29.97,19,3,19,2.90
2013-6-14,79.0,69.2,55.8,63.1,58.4,51.6,88,70,56,30.12,29.91,25,4,25,0.00
2013-6-15,78.3,69.7,62.1,68.7,63.8,58.8,89,82,65,29.94,29.88,17,1,17,0.11
2013-6-16,86.7,69.1,52.2,61.0,55.0,47.8,92,66,29,29.98,29.89,30,2,30,0.08
2013-6-17,80.8,70.5,56.7,61.2,56.5,52.5,89,64,40,30.05,29.91,16,3,16,0.00
2013-6-18,76.5,67.2,57.0,60.6,56.0,50.9,82,68,50,30.13,30.04,11,2,12,0.00
2013-6-19,84.0,72.3,57.2,65.1,59.4,53.6,89,66,45,30.11,29.97,15,2,15,0.00
2013-6-20,89.1,79.9,70.3,68.7,64.3,59.9,76,60,45,30.03,29.88,22,5,22,0.00
2013-6-21,81.7,72.3,63.7,70.2,64.9,59.9,88,78,58,30.07,29.76,32,4,32,1.25
2013-6-22,81.1,72.0,64.9,70.9,66.1,61.7,89,82,68,30.04,29.85,17,1,20,0.80
2013-6-23,83.7,75.1,65.7,69.6,67.1,62.2,89,77,56,29.92,29.71,26,5,27,0.59
2013-6-24,81.9,71.3,60.6,71.4,65.5,57.7,90,82,67,29.95,29.83,19,1,21,0.01
2013-6-25,85.3,75.5,64.0,74.3,68.4,61.0,90,79,67,29.86,29.73,14,2,14,0.00
2013-6-26,87.1,78.2,70.5,75.9,69.2,64.2,89,75,54,29.85,29.68,22,2,22,0.00
2013-6-27,84.9,76.4,64.8,68.4,61.6,55.2,89,63,37,29.87,29.82,24,4,25,0.00
2013-6-28,77.7,71.3,65.7,63.1,59.9,56.8,86,68,55,29.86,29.80,21,7,31,0.04
2013-6-29,76.5,69.0,63.0,62.6,57.8,50.0,89,70,47,30.03,29.79,22,4,22,0.03
2013-6-30,81.1,68.0,53.4,57.9,53.5,49.6,89,63,38,30.17,30.03,16,2,16,0.00
2013-7-1,83.7,70.8,55.0,65.5,56.6,51.8,89,64,39,30.23,30.16,13,1,13,0.00
2013-7-2,81.9,71.0,57.6,57.7,55.4,52.0,88,61,38,30.20,30.09,15,1,15,0.00
2013-7-3,84.7,69.9,52.9,64.6,55.8,49.6,92,65,33,30.12,29.99,10,1,11,0.00
2013-7-4,88.5,76.1,59.5,63.9,58.6,55.4,87,58,33,30.01,29.88,20,-4,20,0.00
2013-7-5,87.6,78.5,69.3,66.4,62.0,56.7,68,57,45,29.93,29.81,24,5,24,0.00
2013-7-6,90.5,81.7,73.0,70.9,66.1,61.5,68,60,48,29.90,29.81,17,-11,19,0.00
2013-7-7,92.7,84.6,74.8,74.5,70.1,66.7,87,63,49,29.90,29.81,15,-16,15,0.11
2013-7-8,88.5,79.7,68.9,72.0,69.4,65.5,89,72,55,30.02,29.95,10,-16,10,0.00
2013-7-9,84.7,81.0,70.9,72.1,70.3,67.1,89,70,64,29.90,29.85,19,-17,20,0.00
2013-7-10,79.5,73.7,61.3,62.4,57.6,53.8,85,58,46,30.09,30.04,18,-13,20,0.00
2013-7-11,84.6,78.9,59.7,66.4,60.2,55.9,90,55,38,30.15,29.99,16,-9,18,0.01
2013-7-12,88.0,81.8,69.6,65.5,63.0,58.8,69,54,45,30.04,29.91,27,-3,27,0.00
2013-7-13,76.5,74.4,67.6,69.4,66.4,62.2,88,76,69,30.05,29.98,25,-10,25,0.00
2013-7-14,84.6,81.8,74.1,71.2,67.6,65.1,75,63,55,30.17,30.14,17,-20,18,0.00
2013-7-15,87.6,82.1,65.8,71.8,68.2,62.4,89,64,51,30.26,29.43,14,-15,15,0.00
2013-7-16,92.5,87.2,73.8,74.8,73.0,70.0,88,63,53,30.23,30.18,16,-14,16,0.00
2013-7-17,94.3,88.1,70.5,75.7,73.0,67.1,89,62,50,30.27,30.13,16,-14,16,0.00
2013-7-18,92.3,88.1,75.2,75.2,72.5,70.3,85,61,52,30.05,29.79,24,-10,25,0.00
2013-7-19,82.8,79.4,75.7,71.2,63.9,59.5,84,60,48,29.89,29.80,19,-13,19,0.00
2013-7-20,84.0,75.1,62.6,66.6,63.6,59.4,89,68,51,29.97,29.93,11,-17,11,0.00
2013-7-21,81.0,75.7,61.3,69.6,66.1,57.7,88,73,61,29.95,29.82,14,-27,14,0.00
2013-7-22,87.1,77.4,67.5,73.0,65.8,57.6,89,68,55,29.90,29.71,21,1,21,0.01
2013-7-23,75.2,66.9,57.6,57.9,55.4,53.1,87,68,49,30.07,29.89,15,3,16,0.00
2013-7-24,79.0,65.5,55.2,63.0,57.5,52.0,89,77,52,30.13,30.02,13,1,13,0.00
2013-7-25,80.2,70.5,57.9,68.5,61.7,54.5,89,75,52,30.03,29.94,15,2,16,0.01
2013-7-26,69.4,63.5,54.9,65.1,55.6,48.6,89,76,60,30.14,29.95,25,6,25,0.23
2013-7-27,63.5,57.3,50.5,51.6,48.0,45.1,87,72,54,30.15,30.01,28,5,28,0.00
2013-7-28,72.0,59.1,47.7,55.8,49.8,44.1,88,72,51,30.13,30.04,16,3,16,0.00
2013-7-29,76.6,63.6,46.8,59.9,53.7,44.1,91,72,46,30.19,30.12,12,1,13,0.01
2013-7-30,71.1,66.3,62.1,64.8,61.9,58.3,89,86,80,30.15,30.09,6,0,7,0.05
2013-7-31,78.6,66.8,56.7,67.1,58.9,53.4,92,78,48,30.14,30.04,25,2,25,0.02
2013-8-1,81.0,67.1,49.8,64.8,56.1,46.6,90,70,46,30.10,29.91,12,1,14,0.00
2013-8-2,75.0,66.5,56.1,59.9,55.4,51.3,89,69,44,30.10,29.90,15,2,17,0.00
2013-8-3,76.3,63.9,48.7,61.0,52.5,45.9,91,70,41,30.25,30.10,13,1,13,0.00
2013-8-4,75.0,61.8,47.8,60.6,54.1,45.0,94,77,50,30.29,30.06,7,0,7,0.00
2013-8-5,79.9,68.3,59.4,67.8,62.3,55.2,90,82,62,30.09,29.83,11,1,12,1.18
2013-8-6,83.5,66.4,54.5,68.9,60.2,51.6,92,82,58,29.90,29.30,19,2,19,0.01
2013-8-7,73.8,64.7,55.9,58.1,55.5,51.4,92,74,47,30.08,29.10,16,2,16,0.02
2013-8-8,72.5,61.6,51.1,62.8,56.3,48.0,91,84,58,30.12,30.04,13,1,14,0.05
2013-8-9,73.4,64.0,54.0,61.0,54.8,51.3,91,74,51,30.18,30.06,19,3,19,0.01
2013-8-10,77.7,65.9,57.0,61.0,56.3,49.6,90,73,46,30.25,30.13,11,1,11,0.00
2013-8-11,82.2,69.4,63.0,66.6,62.1,58.6,90,78,56,30.14,30.03,9,0,9,0.00
2013-8-12,77.2,68.0,59.7,60.6,58.0,54.1,92,72,49,30.11,30.05,16,2,16,0.01
2013-8-13,74.7,64.4,51.6,56.7,52.6,47.8,89,68,42,30.25,30.11,15,1,15,0.00
2013-8-14,75.7,61.9,48.0,57.2,51.4,45.1,91,72,42,30.27,30.16,15,2,16,0.01
2013-8-15,77.9,62.6,48.9,63.0,54.4,46.0,91,77,47,30.19,30.13,8,1,13,0.00
2013-8-16,77.7,64.5,49.6,62.4,55.0,46.8,91,74,45,30.26,30.19,14,1,14,0.01
2013-8-17,80.4,65.6,49.6,60.1,55.1,46.9,91,72,45,30.26,30.15,19,3,19,0.01
2013-8-18,81.0,68.1,52.3,61.7,57.3,49.5,90,71,47,30.19,30.05,24,3,24,0.01
2013-8-19,85.6,73.2,62.8,70.3,64.5,57.9,86,75,58,30.08,29.93,18,3,19,0.00
2013-8-20,87.4,77.4,68.2,74.1,69.3,64.0,89,77,63,29.95,29.88,20,3,20,0.00
2013-8-21,86.2,76.4,69.3,76.1,71.0,64.8,89,84,68,30.03,29.86,15,1,15,0.01
2013-8-22,84.9,74.7,61.2,65.1,57.2,52.3,83,56,37,30.15,30.03,13,2,15,0.00
2013-8-23,85.8,72.3,57.0,68.9,61.8,52.0,86,71,53,30.19,30.07,16,2,16,0.00
2013-8-24,89.2,78.9,70.5,73.0,69.6,65.5,86,74,56,30.10,29.95,30,7,30,0.00
2013-8-25,94.3,84.4,77.5,76.8,73.3,70.2,84,70,55,30.03,29.94,24,7,24,0.00
2013-8-26,94.3,84.1,74.5,78.4,74.6,70.5,88,74,56,30.00,29.85,21,4,21,0.00
2013-8-27,92.8,82.2,72.0,79.5,74.2,68.5,90,77,60,29.94,29.81,10,1,13,0.00
2013-8-28,90.9,79.5,66.6,75.9,71.5,63.5,90,78,58,30.03,29.93,10,1,10,0.00
2013-8-29,93.0,81.7,73.0,75.2,71.7,68.7,89,74,49,30.02,29.86,22,3,22,0.00
2013-8-30,82.9,75.4,66.0,71.1,67.3,61.7,88,77,59,29.96,29.84,18,2,18,0.00
2013-8-31,88.5,73.5,61.2,70.2,65.2,58.3,90,77,51,29.93,29.76,18,2,18,0.04
2013-9-1,72.3,67.5,61.2,65.5,60.3,54.5,89,78,63,30.04,29.76,19,4,19,0.03
2013-9-2,65.8,56.8,46.9,55.0,51.2,44.1,90,82,65,30.16,30.03,13,2,13,0.00
2013-9-3,78.1,58.7,40.6,60.8,51.3,38.3,92,79,49,30.18,30.06,13,1,14,0.01
2013-9-4,85.8,69.7,53.4,70.3,61.2,50.9,92,76,54,30.19,30.07,10,1,10,0.01
2013-9-5,85.8,73.1,62.8,70.0,62.8,56.3,87,71,55,30.25,30.13,11,1,11,0.00
2013-9-6,90.5,78.1,69.3,69.3,67.1,64.9,90,71,47,30.13,29.89,23,4,24,0.02
2013-9-7,91.0,78.1,63.9,72.7,67.4,60.8,90,71,47,30.03,29.88,15,1,15,0.00
2013-9-8,80.4,71.5,66.2,67.6,63.7,59.4,84,77,63,30.07,29.91,13,2,15,0.00
2013-9-9,93.7,78.3,67.5,74.3,69.0,64.0,90,75,48,29.91,29.65,20,4,20,0.01
2013-9-10,80.8,72.6,65.1,69.3,64.9,60.8,90,77,58,30.03,29.79,14,2,14,0.01
2013-9-11,82.6,70.9,56.8,63.5,57.5,51.4,91,66,37,30.12,30.03,23,3,23,0.00
2013-9-12,72.9,63.4,51.1,55.8,50.1,45.7,85,64,41,30.29,30.11,22,4,24,0.00
2013-9-13,71.8,56.7,42.3,52.0,45.6,39.4,91,69,40,30.35,30.15,10,1,10,0.00
2013-9-14,72.9,56.7,41.7,56.1,48.2,39.0,91,76,44,30.16,29.94,20,3,21,0.60
2013-9-15,66.0,58.8,51.1,56.3,53.3,46.0,91,82,65,30.39,29.93,16,3,17,0.60
2013-9-16,68.5,53.8,39.2,51.3,44.7,36.5,91,73,47,30.48,30.32,9,1,14,0.00
2013-9-17,67.5,55.8,43.9,56.8,50.2,40.8,92,82,63,30.33,30.00,22,4,22,0.06
2013-9-18,81.7,69.1,59.7,71.4,64.7,56.8,91,86,70,30.00,29.72,18,3,18,0.12
2013-9-19,76.6,70.5,63.5,70.0,65.2,53.8,90,84,71,29.87,29.67,26,2,26,0.26
2013-9-20,63.9,57.8,50.4,54.7,50.9,46.0,90,78,61,30.01,29.84,22,5,23,0.00
2013-9-21,64.9,52.9,43.9,49.8,45.7,41.2,91,78,55,30.07,29.98,12,2,13,0.01
2013-9-22,77.4,60.7,44.2,57.7,50.9,41.7,91,72,49,30.04,29.89,19,3,19,0.01
2013-9-23,76.3,63.8,54.7,55.6,52.0,48.6,82,67,46,29.99,29.90,26,4,26,0.00
2013-9-24,78.8,62.4,50.5,57.7,52.5,47.3,90,72,44,30.02,29.96,12,1,13,0.00
2013-9-25,77.4,61.6,46.8,57.6,51.5,44.2,91,72,45,30.03,29.90,16,2,18,0.01
2013-9-26,83.5,68.8,56.5,62.8,57.0,50.7,83,68,48,29.96,29.85,24,4,24,0.00
2013-9-27,86.0,74.1,66.7,65.5,61.9,59.9,79,67,45,29.94,29.81,26,7,27,0.01
2013-9-28,72.9,60.6,43.3,62.8,53.6,40.6,90,78,62,30.00,29.67,26,6,27,0.15
2013-9-29,43.3,43.2,43.2,40.6,40.5,40.5,90,90,90,30.01,30.00,0,0,2,0.15
2013-10-1,75.6,61.0,43.9,40.5,39.2,36.5,83,50,26,30.05,29.92,18,2,19,0.00
2013-10-2,78.6,57.9,38.5,54.7,43.9,35.8,91,66,28,30.11,29.87,22,2,22,0.86
2013-10-3,60.6,58.3,56.3,57.7,55.4,53.8,91,90,88,29.99,29.88,13,2,14,0.01
2013-10-4,58.1,56.7,54.7,55.2,53.7,52.2,91,90,87,30.04,29.85,19,4,19,0.54
2013-10-5,59.5,52.9,39.2,56.8,47.7,36.9,91,83,60,29.91,29.80,15,2,16,0.03
2013-10-6,52.9,45.5,37.6,50.4,43.0,35.4,97,91,86,29.94,29.77,21,2,22,0.05
2013-10-7,70.9,51.5,37.9,48.0,42.3,35.6,92,74,38,30.05,29.92,12,1,12,0.01
2013-10-8,78.6,61.6,43.5,51.1,46.2,41.0,91,61,35,30.04,29.87,33,6,33,0.01
2013-10-9,78.3,64.0,54.1,54.5,50.2,47.8,81,62,40,30.08,29.98,22,4,22,0.00
2013-10-10,79.7,63.5,51.3,57.6,50.4,44.8,82,64,42,30.09,29.92,24,4,24,0.00
2013-10-11,74.1,65.1,55.6,62.1,55.1,50.5,88,71,53,29.92,29.66,31,7,34,0.06
2013-10-12,58.3,50.1,40.5,50.9,41.5,36.0,88,73,47,30.27,29.76,30,5,30,0.00
2013-10-13,62.2,45.7,30.0,42.4,35.6,27.5,92,71,38,30.53,30.27,12,0,12,0.00
2013-10-14,54.5,47.1,36.9,46.4,39.8,34.0,90,77,56,30.49,30.00,17,2,17,0.61
2013-10-15,53.8,49.8,46.0,51.3,47.1,43.3,91,90,89,30.01,29.73,22,4,22,0.60
2013-10-16,54.7,45.2,33.4,43.3,39.1,30.7,91,80,52,30.05,29.91,17,3,18,0.00
2013-10-17,59.0,44.3,32.5,44.8,38.3,30.0,91,81,48,29.98,29.86,18,2,18,0.14
2013-10-18,53.1,43.3,36.3,39.4,35.0,30.0,94,74,45,30.07,29.94,18,3,18,0.04
2013-10-19,45.9,38.2,29.7,39.9,33.7,26.1,91,84,73,29.94,29.78,24,2,25,0.09
2013-10-20,48.4,37.4,27.9,41.4,33.0,25.0,91,84,66,29.99,29.70,22,3,23,0.04
2013-10-21,38.8,34.1,24.8,31.3,23.7,20.5,87,66,54,30.08,29.99,24,5,24,0.00
2013-10-22,39.9,32.4,21.6,31.3,26.3,18.3,90,79,65,30.15,30.07,12,1,12,0.00
2013-10-23,38.5,34.0,29.5,30.2,25.4,20.8,87,71,54,30.22,30.12,19,3,19,0.00
2013-10-24,43.7,36.9,31.6,30.6,27.4,22.3,88,69,55,30.43,30.22,22,4,22,0.00
2013-10-25,59.4,42.4,21.7,41.9,32.9,19.0,90,71,50,30.44,29.88,24,6,27,0.00
2013-10-26,50.2,42.3,31.6,41.4,31.0,26.2,81,64,52,30.20,29.89,22,6,22,0.00
2013-10-27,58.3,41.4,25.9,37.0,30.2,22.5,89,67,43,30.22,29.91,18,3,18,0.00
2013-10-28,43.9,37.7,32.4,30.4,25.4,21.4,79,62,46,30.52,30.22,18,2,21,0.00
2013-10-29,42.3,37.8,32.2,36.3,29.4,22.6,89,72,65,30.51,30.18,13,2,13,0.05
2013-10-30,49.3,44.9,39.2,46.9,42.6,36.1,92,91,89,30.18,29.75,13,0,14,0.09
2013-10-31,48.9,42.0,39.6,46.8,39.3,36.9,92,90,85,29.75,29.49,14,2,14,0.09
2013-11-1,52.2,43.6,37.8,39.6,37.2,32.4,90,79,59,29.96,29.51,17,3,18,0.00
2013-11-2,50.9,39.3,30.9,36.9,32.4,28.0,90,77,54,30.19,29.96,13,2,13,0.00
2013-11-3,55.8,44.5,31.8,37.0,33.6,29.3,92,68,43,30.20,29.95,30,8,31,0.01
2013-11-4,49.3,43.6,28.6,44.1,36.6,26.2,92,77,59,30.25,29.89,23,6,26,0.19
2013-11-5,43.5,33.6,24.4,37.0,28.8,22.3,92,84,59,30.35,30.12,17,2,17,0.19
2013-11-6,37.4,32.5,28.2,31.3,27.1,23.0,91,80,65,30.29,30.13,18,4,19,0.15
2013-11-7,34.0,28.5,23.7,29.5,25.3,21.0,91,88,83,30.37,30.28,16,2,17,0.00
2013-11-8,46.4,35.5,20.3,40.5,28.2,17.8,91,76,54,30.32,29.71,21,4,21,0.00
2013-11-9,44.8,41.0,35.4,40.5,33.0,26.6,85,73,60,30.32,29.73,30,8,30,0.00
2013-11-10,41.0,37.3,33.1,32.0,29.5,27.0,81,73,65,30.44,30.19,17,3,17,0.00
2013-11-11,38.1,24.8,15.8,31.8,14.3,7.7,85,64,52,30.87,30.22,28,8,28,0.01
2013-11-12,30.0,18.9,10.6,13.8,10.0,6.1,83,69,46,30.94,30.59,15,3,16,0.00
2013-11-13,54.9,36.6,18.1,36.3,25.1,12.4,79,64,49,30.59,29.98,24,6,26,0.00
2013-11-14,56.3,40.4,29.5,41.5,33.0,26.1,87,75,57,29.98,29.84,15,2,15,0.00
2013-11-15,56.5,40.5,24.8,40.8,33.0,22.1,92,76,53,29.94,29.72,18,3,19,0.01
2013-11-16,49.3,44.7,40.3,47.1,41.3,34.3,92,88,73,29.72,29.30,18,3,18,0.16
2013-11-17,43.7,39.5,31.8,39.7,34.7,24.8,91,83,75,29.95,29.39,32,8,35,0.01
2013-11-18,35.8,29.2,19.6,25.9,21.6,16.5,92,73,61,30.38,29.95,31,6,31,0.00
2013-11-19,48.2,36.2,18.9,31.8,26.4,16.0,90,69,51,30.38,30.01,27,7,28,0.00
2013-11-20,46.2,42.7,38.3,34.3,31.4,27.1,85,65,50,30.12,29.96,26,7,30,0.00
2013-11-21,38.3,30.3,23.7,35.1,25.5,15.4,90,82,68,30.64,30.12,23,7,25,0.00
2013-11-22,36.0,22.8,11.7,18.7,11.4,3.4,83,63,34,30.78,30.58,24,6,26,0.00
2013-11-23,18.1,10.9,4.3,6.3,2.1,-1.5,79,68,50,31.00,30.78,19,4,21,0.00
2013-11-24,32.2,18.9,1.6,16.7,9.1,-2.9,92,66,50,30.87,30.14,33,8,33,0.00
2013-11-25,39.7,33.8,27.9,28.9,23.9,16.5,80,67,58,30.20,30.04,26,7,28,0.00
2013-11-26,30.7,21.0,12.9,21.6,8.5,3.2,76,58,49,30.53,30.19,29,9,29,0.00
2013-11-27,24.6,16.7,4.1,13.1,7.7,-0.2,87,68,52,30.53,30.21,18,2,18,0.00
2013-11-28,26.8,20.8,7.0,17.6,11.9,2.8,83,68,61,30.65,30.20,20,3,22,0.00
2013-11-29,33.4,21.6,4.6,21.2,14.0,0.9,92,74,55,30.66,30.26,23,4,23,0.00
2013-11-30,38.3,31.2,21.4,28.2,24.2,18.0,90,76,65,30.28,30.15,9,1,9,0.00
2013-12-1,32.7,26.1,16.2,25.9,21.5,12.9,89,83,74,30.31,30.03,3,0,5,0.00
2013-12-2,39.4,33.7,26.1,33.8,29.7,23.0,96,85,73,30.03,29.67,13,1,13,0.19
2013-12-3,35.4,34.0,32.4,33.3,31.8,30.2,92,91,89,29.87,29.67,10,0,10,0.12
2013-12-4,32.2,27.1,10.9,30.2,24.7,6.6,92,91,81,29.87,29.58,25,4,28,0.00
2013-12-5,10.9,5.0,-3.5,6.8,-0.4,-8.5,83,78,71,30.53,29.87,23,5,24,0.00
2013-12-6,2.3,-4.6,-11.4,-4.9,-10.2,-16.8,81,76,70,30.86,30.53,13,1,13,0.00
2013-12-7,0.5,-9.0,-18.2,-8.3,-14.7,-23.3,81,75,63,30.94,30.77,12,1,12,0.00
2013-12-8,13.6,7.0,-6.7,10.4,3.2,-11.2,92,84,81,30.77,30.19,9,0,9,0.00
2013-12-9,10.2,-0.6,-6.7,7.2,-5.9,-12.3,97,78,68,30.30,30.04,19,3,23,0.00
2013-12-10,16.2,8.1,2.1,12.6,2.3,-4.7,87,77,69,30.46,29.94,26,5,26,0.00
2013-12-11,6.4,-3.5,-9.8,-2.0,-10.5,-15.5,78,71,65,30.76,30.46,18,3,18,0.00
2013-12-12,19.8,11.4,2.1,10.9,5.4,-4.0,84,76,66,30.50,30.29,12,1,12,0.01
2013-12-13,17.1,14.5,12.4,11.1,8.6,7.0,84,77,72,30.43,30.26,15,2,16,0.00
2013-12-14,14.5,9.5,0.1,9.3,4.5,-6.5,85,80,73,30.42,30.25,18,2,18,0.00
2013-12-15,3.7,1.6,-0.9,-2.9,-6.2,-7.6,75,69,62,30.33,30.27,15,2,16,0.00
2013-12-16,18.1,10.1,3.4,15.3,5.1,-4.5,90,80,69,30.29,30.08,16,1,18,0.00
2013-12-17,32.5,21.9,1.6,27.0,15.4,-2.2,91,76,62,30.25,30.04,26,6,26,0.00
2013-12-18,38.7,23.6,1.0,27.5,17.5,-2.9,88,78,63,30.21,29.78,17,2,17,0.01
2013-12-19,28.8,18.8,16.2,23.0,12.8,9.0,84,77,69,30.19,29.93,18,4,18,0.00
2013-12-20,18.5,16.4,14.4,14.5,12.0,10.4,92,82,79,30.16,29.99,11,1,12,0.00
2013-12-21,21.7,18.6,15.6,16.5,13.4,10.9,88,80,75,30.13,30.00,14,2,16,0.00
2013-12-22,18.0,12.3,1.8,13.5,7.6,-2.9,84,81,76,30.42,30.08,16,4,16,0.00
2013-12-23,1.8,-4.6,-15.2,-3.1,-10.9,-21.3,80,73,68,30.71,30.42,17,3,17,0.00
2013-12-24,11.1,-2.1,-20.6,7.2,-8.5,-25.8,86,74,51,30.70,30.31,17,3,18,0.00
2013-12-25,28.2,17.2,10.6,25.7,13.2,6.8,92,84,73,30.31,30.19,21,2,21,0.00
2013-12-26,26.8,19.1,9.9,23.0,15.5,6.8,88,86,82,30.31,30.20,4,0,4,0.00
2013-12-27,39.9,26.3,8.4,31.3,21.9,5.4,91,84,68,30.30,30.03,22,3,22,0.07
2013-12-28,43.3,28.5,17.4,32.5,23.6,14.0,98,83,62,30.13,29.75,31,5,31,0.11
2013-12-29,19.2,-2.0,-19.7,13.8,-10.5,-25.6,80,67,54,30.50,30.13,29,7,29,0.00
2013-12-30,2.7,-6.9,-20.2,-2.0,-11.7,-26.0,83,79,74,30.50,30.36,6,0,7,0.00
2013-12-31,1.0,-6.3,-11.4,-5.3,-11.7,-16.1,92,77,69,30.61,30.40,9,1,9,0.00
2014-1-1,2.3,-1.9,-6.7,-6.3,-9.5,-13.7,77,69,65,30.68,30.59,10,2,11,0.00
2014-1-2,2.5,-6.2,-19.3,-7.2,-14.5,-25.1,75,67,51,30.70,30.58,8,1,9,0.00